sensor_id;sensor_type;location;lat;lon;timestamp;P1;durP1;ratioP1;P2;durP2;ratioP2
8592;SDS011;4334;49.982;8.398;2023-07-13T00:02:22;1.07;;;1.07;;
8592;SDS011;4334;49.982;8.398;2023-07-13T00:04:49;1.40;;;1.10;;
8592;SDS011;4334;49.982;8.398;2023-07-13T00:07:17;1.30;;;1.10;;
8592;SDS011;4334;49.982;8.398;2023-07-13T00:09:44;4.97;;;1.50;;
8592;SDS011;4334;49.982;8.398;2023-07-13T00:12:21;1.53;;;1.10;;
8592;SDS011;4334;49.982;8.398;2023-07-13T00:14:49;1.20;;;1.10;;
8592;SDS011;4334;49.982;8.398;2023-07-13T00:17:16;3.07;;;1.10;;
8592;SDS011;4334;49.982;8.398;2023-07-13T00:19:44;1.27;;;1.10;;
8592;SDS011;4334;49.982;8.398;2023-07-13T00:22:11;1.53;;;1.23;;
8592;SDS011;4334;49.982;8.398;2023-07-13T00:24:38;2.07;;;1.30;;
8592;SDS011;4334;49.982;8.398;2023-07-13T00:27:07;1.80;;;1.20;;
8592;SDS011;4334;49.982;8.398;2023-07-13T00:29:34;1.37;;;1.17;;
8592;SDS011;4334;49.982;8.398;2023-07-13T00:32:01;3.93;;;1.00;;
8592;SDS011;4334;49.982;8.398;2023-07-13T00:34:28;4.50;;;1.30;;
8592;SDS011;4334;49.982;8.398;2023-07-13T00:36:56;1.47;;;1.17;;
8592;SDS011;4334;49.982;8.398;2023-07-13T00:39:23;1.90;;;1.40;;
8592;SDS011;4334;49.982;8.398;2023-07-13T00:41:50;1.20;;;1.10;;
8592;SDS011;4334;49.982;8.398;2023-07-13T00:44:18;1.50;;;1.13;;
8592;SDS011;4334;49.982;8.398;2023-07-13T00:46:46;6.50;;;1.40;;
8592;SDS011;4334;49.982;8.398;2023-07-13T00:49:13;1.20;;;1.10;;
8592;SDS011;4334;49.982;8.398;2023-07-13T00:51:48;3.10;;;1.60;;
8592;SDS011;4334;49.982;8.398;2023-07-13T00:54:19;3.00;;;1.80;;
8592;SDS011;4334;49.982;8.398;2023-07-13T00:56:49;5.00;;;1.40;;
8592;SDS011;4334;49.982;8.398;2023-07-13T00:59:19;1.60;;;1.40;;
8592;SDS011;4334;49.982;8.398;2023-07-13T01:01:47;2.00;;;1.27;;
8592;SDS011;4334;49.982;8.398;2023-07-13T01:04:14;1.80;;;1.37;;
8592;SDS011;4334;49.982;8.398;2023-07-13T01:06:41;1.33;;;1.23;;
8592;SDS011;4334;49.982;8.398;2023-07-13T01:09:10;9.77;;;1.47;;
8592;SDS011;4334;49.982;8.398;2023-07-13T01:11:38;1.27;;;1.13;;
8592;SDS011;4334;49.982;8.398;2023-07-13T01:14:06;2.20;;;1.43;;
8592;SDS011;4334;49.982;8.398;2023-07-13T01:16:33;1.33;;;1.23;;
8592;SDS011;4334;49.982;8.398;2023-07-13T01:19:03;1.77;;;1.30;;
8592;SDS011;4334;49.982;8.398;2023-07-13T01:21:36;1.70;;;1.30;;
8592;SDS011;4334;49.982;8.398;2023-07-13T01:24:03;3.13;;;1.50;;
8592;SDS011;4334;49.982;8.398;2023-07-13T01:26:30;1.20;;;1.00;;
8592;SDS011;4334;49.982;8.398;2023-07-13T01:28:57;1.33;;;1.20;;
8592;SDS011;4334;49.982;8.398;2023-07-13T01:31:23;2.33;;;1.50;;
8592;SDS011;4334;49.982;8.398;2023-07-13T01:33:50;2.90;;;1.40;;
8592;SDS011;4334;49.982;8.398;2023-07-13T01:36:18;1.10;;;0.97;;
8592;SDS011;4334;49.982;8.398;2023-07-13T01:38:47;1.27;;;1.13;;
8592;SDS011;4334;49.982;8.398;2023-07-13T01:41:14;4.30;;;1.23;;
8592;SDS011;4334;49.982;8.398;2023-07-13T01:43:42;2.17;;;1.30;;
8592;SDS011;4334;49.982;8.398;2023-07-13T01:46:08;1.00;;;0.90;;
8592;SDS011;4334;49.982;8.398;2023-07-13T01:48:35;1.30;;;1.10;;
8592;SDS011;4334;49.982;8.398;2023-07-13T01:51:02;4.60;;;1.20;;
8592;SDS011;4334;49.982;8.398;2023-07-13T01:53:29;2.00;;;1.00;;
8592;SDS011;4334;49.982;8.398;2023-07-13T01:55:57;1.37;;;1.20;;
8592;SDS011;4334;49.982;8.398;2023-07-13T01:58:23;2.17;;;1.47;;
8592;SDS011;4334;49.982;8.398;2023-07-13T02:00:51;4.87;;;1.33;;
8592;SDS011;4334;49.982;8.398;2023-07-13T02:03:18;1.40;;;1.30;;
8592;SDS011;4334;49.982;8.398;2023-07-13T02:05:45;2.33;;;1.70;;
8592;SDS011;4334;49.982;8.398;2023-07-13T02:08:11;1.87;;;1.10;;
8592;SDS011;4334;49.982;8.398;2023-07-13T02:10:38;4.20;;;1.30;;
8592;SDS011;4334;49.982;8.398;2023-07-13T02:13:06;5.63;;;1.17;;
8592;SDS011;4334;49.982;8.398;2023-07-13T02:15:33;1.37;;;1.17;;
8592;SDS011;4334;49.982;8.398;2023-07-13T02:18:00;1.30;;;1.20;;
8592;SDS011;4334;49.982;8.398;2023-07-13T02:20:28;3.77;;;1.67;;
8592;SDS011;4334;49.982;8.398;2023-07-13T02:22:55;8.63;;;1.60;;
8592;SDS011;4334;49.982;8.398;2023-07-13T02:25:22;1.97;;;1.43;;
8592;SDS011;4334;49.982;8.398;2023-07-13T02:27:50;1.40;;;1.30;;
8592;SDS011;4334;49.982;8.398;2023-07-13T02:30:18;2.33;;;1.50;;
8592;SDS011;4334;49.982;8.398;2023-07-13T02:32:45;1.77;;;1.40;;
8592;SDS011;4334;49.982;8.398;2023-07-13T02:35:12;3.07;;;1.50;;
8592;SDS011;4334;49.982;8.398;2023-07-13T02:37:38;1.47;;;1.20;;
8592;SDS011;4334;49.982;8.398;2023-07-13T02:40:06;1.30;;;1.20;;
8592;SDS011;4334;49.982;8.398;2023-07-13T02:42:37;3.13;;;1.77;;
8592;SDS011;4334;49.982;8.398;2023-07-13T02:45:04;4.23;;;1.50;;
8592;SDS011;4334;49.982;8.398;2023-07-13T02:47:33;5.73;;;1.47;;
8592;SDS011;4334;49.982;8.398;2023-07-13T02:50:00;1.77;;;1.57;;
8592;SDS011;4334;49.982;8.398;2023-07-13T02:52:28;2.87;;;1.50;;
8592;SDS011;4334;49.982;8.398;2023-07-13T02:54:54;4.50;;;1.60;;
8592;SDS011;4334;49.982;8.398;2023-07-13T02:57:21;3.00;;;1.40;;
8592;SDS011;4334;49.982;8.398;2023-07-13T02:59:48;3.47;;;1.70;;
8592;SDS011;4334;49.982;8.398;2023-07-13T03:02:15;4.13;;;1.70;;
8592;SDS011;4334;49.982;8.398;2023-07-13T03:04:44;3.20;;;1.40;;
8592;SDS011;4334;49.982;8.398;2023-07-13T03:07:10;3.87;;;1.60;;
8592;SDS011;4334;49.982;8.398;2023-07-13T03:09:39;5.67;;;1.47;;
8592;SDS011;4334;49.982;8.398;2023-07-13T03:12:06;2.77;;;1.07;;
8592;SDS011;4334;49.982;8.398;2023-07-13T03:14:34;5.67;;;1.80;;
8592;SDS011;4334;49.982;8.398;2023-07-13T03:17:00;2.20;;;1.37;;
8592;SDS011;4334;49.982;8.398;2023-07-13T03:19:27;4.57;;;1.20;;
8592;SDS011;4334;49.982;8.398;2023-07-13T03:21:55;2.23;;;1.40;;
8592;SDS011;4334;49.982;8.398;2023-07-13T03:24:22;1.40;;;1.30;;
8592;SDS011;4334;49.982;8.398;2023-07-13T03:26:51;6.07;;;1.50;;
8592;SDS011;4334;49.982;8.398;2023-07-13T03:29:17;4.20;;;1.57;;
8592;SDS011;4334;49.982;8.398;2023-07-13T03:31:44;2.80;;;1.70;;
8592;SDS011;4334;49.982;8.398;2023-07-13T03:34:11;3.20;;;1.80;;
8592;SDS011;4334;49.982;8.398;2023-07-13T03:36:38;3.10;;;1.60;;
8592;SDS011;4334;49.982;8.398;2023-07-13T03:39:08;2.30;;;1.37;;
8592;SDS011;4334;49.982;8.398;2023-07-13T03:41:35;1.50;;;1.40;;
8592;SDS011;4334;49.982;8.398;2023-07-13T03:44:02;1.53;;;1.43;;
8592;SDS011;4334;49.982;8.398;2023-07-13T03:46:29;1.50;;;1.40;;
8592;SDS011;4334;49.982;8.398;2023-07-13T03:48:56;3.37;;;1.47;;
8592;SDS011;4334;49.982;8.398;2023-07-13T03:51:23;1.87;;;1.50;;
8592;SDS011;4334;49.982;8.398;2023-07-13T03:53:50;1.43;;;1.27;;
8592;SDS011;4334;49.982;8.398;2023-07-13T03:56:19;1.50;;;1.40;;
8592;SDS011;4334;49.982;8.398;2023-07-13T03:58:46;2.43;;;1.37;;
8592;SDS011;4334;49.982;8.398;2023-07-13T04:01:14;2.67;;;1.30;;
8592;SDS011;4334;49.982;8.398;2023-07-13T04:03:42;1.57;;;1.20;;
8592;SDS011;4334;49.982;8.398;2023-07-13T04:06:12;2.73;;;1.80;;
8592;SDS011;4334;49.982;8.398;2023-07-13T04:08:45;3.30;;;1.63;;
8592;SDS011;4334;49.982;8.398;2023-07-13T04:11:14;1.67;;;1.40;;
8592;SDS011;4334;49.982;8.398;2023-07-13T04:13:42;4.87;;;1.60;;
8592;SDS011;4334;49.982;8.398;2023-07-13T04:16:08;1.93;;;1.40;;
8592;SDS011;4334;49.982;8.398;2023-07-13T04:18:36;3.67;;;1.77;;
8592;SDS011;4334;49.982;8.398;2023-07-13T04:21:02;1.00;;;0.90;;
8592;SDS011;4334;49.982;8.398;2023-07-13T04:23:30;2.23;;;1.63;;
8592;SDS011;4334;49.982;8.398;2023-07-13T04:25:57;1.50;;;1.23;;
8592;SDS011;4334;49.982;8.398;2023-07-13T04:28:24;6.27;;;1.63;;
8592;SDS011;4334;49.982;8.398;2023-07-13T04:30:53;3.97;;;1.77;;
8592;SDS011;4334;49.982;8.398;2023-07-13T04:33:20;1.60;;;1.50;;
8592;SDS011;4334;49.982;8.398;2023-07-13T04:35:48;3.30;;;1.87;;
8592;SDS011;4334;49.982;8.398;2023-07-13T04:38:19;2.03;;;1.47;;
8592;SDS011;4334;49.982;8.398;2023-07-13T04:40:47;1.57;;;1.43;;
8592;SDS011;4334;49.982;8.398;2023-07-13T04:43:14;1.33;;;1.23;;
8592;SDS011;4334;49.982;8.398;2023-07-13T04:45:40;1.57;;;1.47;;
8592;SDS011;4334;49.982;8.398;2023-07-13T04:48:08;6.37;;;1.40;;
8592;SDS011;4334;49.982;8.398;2023-07-13T04:50:35;4.60;;;1.60;;
8592;SDS011;4334;49.982;8.398;2023-07-13T04:53:03;1.90;;;1.60;;
8592;SDS011;4334;49.982;8.398;2023-07-13T04:55:30;2.33;;;1.10;;
8592;SDS011;4334;49.982;8.398;2023-07-13T04:57:57;2.50;;;1.30;;
8592;SDS011;4334;49.982;8.398;2023-07-13T05:00:24;2.07;;;1.63;;
8592;SDS011;4334;49.982;8.398;2023-07-13T05:02:51;1.07;;;0.93;;
8592;SDS011;4334;49.982;8.398;2023-07-13T05:05:21;3.60;;;1.20;;
8592;SDS011;4334;49.982;8.398;2023-07-13T05:07:47;2.65;;;1.10;;
8592;SDS011;4334;49.982;8.398;2023-07-13T05:10:14;1.92;;;1.40;;
8592;SDS011;4334;49.982;8.398;2023-07-13T05:12:41;2.92;;;0.98;;
8592;SDS011;4334;49.982;8.398;2023-07-13T05:15:09;6.68;;;1.30;;
8592;SDS011;4334;49.982;8.398;2023-07-13T05:17:36;3.70;;;1.20;;
8592;SDS011;4334;49.982;8.398;2023-07-13T05:20:04;1.13;;;0.90;;
8592;SDS011;4334;49.982;8.398;2023-07-13T05:22:33;1.38;;;1.00;;
8592;SDS011;4334;49.982;8.398;2023-07-13T05:25:00;4.50;;;1.42;;
8592;SDS011;4334;49.982;8.398;2023-07-13T05:27:27;4.18;;;1.80;;
8592;SDS011;4334;49.982;8.398;2023-07-13T05:29:54;2.15;;;1.60;;
8592;SDS011;4334;49.982;8.398;2023-07-13T05:32:21;1.23;;;1.10;;
8592;SDS011;4334;49.982;8.398;2023-07-13T05:34:47;3.85;;;1.25;;
8592;SDS011;4334;49.982;8.398;2023-07-13T05:37:14;4.30;;;1.40;;
8592;SDS011;4334;49.982;8.398;2023-07-13T05:39:42;1.42;;;0.95;;
8592;SDS011;4334;49.982;8.398;2023-07-13T05:42:09;2.83;;;1.08;;
8592;SDS011;4334;49.982;8.398;2023-07-13T05:44:36;2.65;;;1.20;;
8592;SDS011;4334;49.982;8.398;2023-07-13T05:47:03;2.88;;;0.98;;
8592;SDS011;4334;49.982;8.398;2023-07-13T05:49:30;5.72;;;1.52;;
8592;SDS011;4334;49.982;8.398;2023-07-13T05:51:56;1.00;;;0.82;;
8592;SDS011;4334;49.982;8.398;2023-07-13T05:54:23;3.30;;;1.20;;
8592;SDS011;4334;49.982;8.398;2023-07-13T05:56:52;0.88;;;0.82;;
8592;SDS011;4334;49.982;8.398;2023-07-13T05:59:18;8.68;;;1.60;;
8592;SDS011;4334;49.982;8.398;2023-07-13T06:01:45;2.72;;;1.10;;
8592;SDS011;4334;49.982;8.398;2023-07-13T06:04:12;0.90;;;0.90;;
8592;SDS011;4334;49.982;8.398;2023-07-13T06:06:38;1.30;;;0.98;;
8592;SDS011;4334;49.982;8.398;2023-07-13T06:09:05;1.02;;;0.90;;
8592;SDS011;4334;49.982;8.398;2023-07-13T06:11:32;3.28;;;1.05;;
8592;SDS011;4334;49.982;8.398;2023-07-13T06:14:01;0.95;;;0.93;;
8592;SDS011;4334;49.982;8.398;2023-07-13T06:16:28;0.82;;;0.70;;
8592;SDS011;4334;49.982;8.398;2023-07-13T06:18:55;0.73;;;0.70;;
8592;SDS011;4334;49.982;8.398;2023-07-13T06:21:22;1.95;;;1.05;;
8592;SDS011;4334;49.982;8.398;2023-07-13T06:23:50;1.38;;;1.00;;
8592;SDS011;4334;49.982;8.398;2023-07-13T06:26:18;0.93;;;0.88;;
8592;SDS011;4334;49.982;8.398;2023-07-13T06:28:46;2.58;;;0.85;;
8592;SDS011;4334;49.982;8.398;2023-07-13T06:31:14;0.70;;;0.70;;
8592;SDS011;4334;49.982;8.398;2023-07-13T06:33:41;1.70;;;1.05;;
8592;SDS011;4334;49.982;8.398;2023-07-13T06:36:09;0.80;;;0.80;;
8592;SDS011;4334;49.982;8.398;2023-07-13T06:38:36;0.70;;;0.60;;
8592;SDS011;4334;49.982;8.398;2023-07-13T06:41:03;1.35;;;1.00;;
8592;SDS011;4334;49.982;8.398;2023-07-13T06:43:30;2.03;;;0.90;;
8592;SDS011;4334;49.982;8.398;2023-07-13T06:45:57;0.73;;;0.73;;
8592;SDS011;4334;49.982;8.398;2023-07-13T06:48:26;0.95;;;0.80;;
8592;SDS011;4334;49.982;8.398;2023-07-13T06:50:53;2.53;;;0.90;;
8592;SDS011;4334;49.982;8.398;2023-07-13T06:53:20;1.00;;;0.90;;
8592;SDS011;4334;49.982;8.398;2023-07-13T06:55:47;2.70;;;0.85;;
8592;SDS011;4334;49.982;8.398;2023-07-13T06:58:15;1.42;;;0.90;;
8592;SDS011;4334;49.982;8.398;2023-07-13T07:00:43;2.10;;;0.68;;
8592;SDS011;4334;49.982;8.398;2023-07-13T07:03:10;0.70;;;0.70;;
8592;SDS011;4334;49.982;8.398;2023-07-13T07:05:38;1.58;;;0.80;;
8592;SDS011;4334;49.982;8.398;2023-07-13T07:08:05;3.50;;;1.20;;
8592;SDS011;4334;49.982;8.398;2023-07-13T07:10:32;3.78;;;0.95;;
8592;SDS011;4334;49.982;8.398;2023-07-13T07:12:59;3.08;;;1.00;;
8592;SDS011;4334;49.982;8.398;2023-07-13T07:15:27;4.63;;;1.15;;
8592;SDS011;4334;49.982;8.398;2023-07-13T07:17:53;2.92;;;0.90;;
8592;SDS011;4334;49.982;8.398;2023-07-13T07:20:20;2.08;;;1.05;;
8592;SDS011;4334;49.982;8.398;2023-07-13T07:22:48;1.55;;;0.80;;
8592;SDS011;4334;49.982;8.398;2023-07-13T07:25:15;5.95;;;0.68;;
8592;SDS011;4334;49.982;8.398;2023-07-13T07:27:42;3.50;;;0.98;;
8592;SDS011;4334;49.982;8.398;2023-07-13T07:30:09;1.67;;;1.10;;
8592;SDS011;4334;49.982;8.398;2023-07-13T07:32:37;3.92;;;1.15;;
8592;SDS011;4334;49.982;8.398;2023-07-13T07:35:04;4.30;;;1.25;;
8592;SDS011;4334;49.982;8.398;2023-07-13T07:37:32;0.68;;;0.68;;
8592;SDS011;4334;49.982;8.398;2023-07-13T07:40:00;1.10;;;0.93;;
8592;SDS011;4334;49.982;8.398;2023-07-13T07:42:27;2.90;;;0.85;;
8592;SDS011;4334;49.982;8.398;2023-07-13T07:44:54;1.25;;;0.57;;
8592;SDS011;4334;49.982;8.398;2023-07-13T07:47:21;1.58;;;1.02;;
8592;SDS011;4334;49.982;8.398;2023-07-13T07:49:51;0.77;;;0.77;;
8592;SDS011;4334;49.982;8.398;2023-07-13T07:52:18;1.88;;;1.00;;
8592;SDS011;4334;49.982;8.398;2023-07-13T07:54:45;2.97;;;1.27;;
8592;SDS011;4334;49.982;8.398;2023-07-13T07:57:13;2.38;;;1.05;;
8592;SDS011;4334;49.982;8.398;2023-07-13T07:59:40;2.03;;;1.10;;
8592;SDS011;4334;49.982;8.398;2023-07-13T08:02:08;1.75;;;0.95;;
8592;SDS011;4334;49.982;8.398;2023-07-13T08:04:35;2.92;;;1.30;;
8592;SDS011;4334;49.982;8.398;2023-07-13T08:07:02;3.08;;;0.90;;
8592;SDS011;4334;49.982;8.398;2023-07-13T08:09:29;4.35;;;1.10;;
8592;SDS011;4334;49.982;8.398;2023-07-13T08:11:56;4.05;;;0.98;;
8592;SDS011;4334;49.982;8.398;2023-07-13T08:14:24;1.08;;;0.80;;
8592;SDS011;4334;49.982;8.398;2023-07-13T08:16:51;0.65;;;0.52;;
8592;SDS011;4334;49.982;8.398;2023-07-13T08:19:18;0.93;;;0.93;;
8592;SDS011;4334;49.982;8.398;2023-07-13T08:21:45;0.80;;;0.80;;
8592;SDS011;4334;49.982;8.398;2023-07-13T08:24:13;1.55;;;1.05;;
8592;SDS011;4334;49.982;8.398;2023-07-13T08:26:40;1.67;;;0.82;;
8592;SDS011;4334;49.982;8.398;2023-07-13T08:29:06;0.88;;;0.77;;
8592;SDS011;4334;49.982;8.398;2023-07-13T08:31:35;1.75;;;0.95;;
8592;SDS011;4334;49.982;8.398;2023-07-13T08:34:01;0.73;;;0.63;;
8592;SDS011;4334;49.982;8.398;2023-07-13T08:36:28;0.63;;;0.60;;
8592;SDS011;4334;49.982;8.398;2023-07-13T08:38:55;3.22;;;1.00;;
8592;SDS011;4334;49.982;8.398;2023-07-13T08:41:22;3.05;;;0.90;;
8592;SDS011;4334;49.982;8.398;2023-07-13T08:43:51;4.68;;;0.88;;
8592;SDS011;4334;49.982;8.398;2023-07-13T08:46:23;3.17;;;0.80;;
8592;SDS011;4334;49.982;8.398;2023-07-13T08:48:53;9.98;;;1.27;;
8592;SDS011;4334;49.982;8.398;2023-07-13T08:51:26;1.10;;;0.98;;
8592;SDS011;4334;49.982;8.398;2023-07-13T08:54:02;1.02;;;0.90;;
8592;SDS011;4334;49.982;8.398;2023-07-13T08:56:31;0.93;;;0.85;;
8592;SDS011;4334;49.982;8.398;2023-07-13T08:59:00;0.82;;;0.50;;
8592;SDS011;4334;49.982;8.398;2023-07-13T09:01:33;2.65;;;0.95;;
8592;SDS011;4334;49.982;8.398;2023-07-13T09:04:15;0.60;;;0.55;;
8592;SDS011;4334;49.982;8.398;2023-07-13T09:06:50;1.30;;;0.70;;
8592;SDS011;4334;49.982;8.398;2023-07-13T09:09:26;1.98;;;0.68;;
8592;SDS011;4334;49.982;8.398;2023-07-13T09:12:07;5.22;;;0.90;;
8592;SDS011;4334;49.982;8.398;2023-07-13T09:14:42;2.10;;;0.63;;
8592;SDS011;4334;49.982;8.398;2023-07-13T09:17:13;2.13;;;0.90;;
8592;SDS011;4334;49.982;8.398;2023-07-13T09:19:45;3.40;;;0.88;;
8592;SDS011;4334;49.982;8.398;2023-07-13T09:22:18;1.33;;;0.85;;
8592;SDS011;4334;49.982;8.398;2023-07-13T09:24:51;1.13;;;0.77;;
8592;SDS011;4334;49.982;8.398;2023-07-13T09:27:22;0.75;;;0.70;;
8592;SDS011;4334;49.982;8.398;2023-07-13T09:29:54;1.83;;;0.70;;
8592;SDS011;4334;49.982;8.398;2023-07-13T09:32:24;1.00;;;0.88;;
8592;SDS011;4334;49.982;8.398;2023-07-13T09:34:55;0.82;;;0.80;;
8592;SDS011;4334;49.982;8.398;2023-07-13T09:37:22;0.63;;;0.55;;
8592;SDS011;4334;49.982;8.398;2023-07-13T09:39:54;0.60;;;0.60;;
8592;SDS011;4334;49.982;8.398;2023-07-13T09:42:24;1.27;;;0.77;;
8592;SDS011;4334;49.982;8.398;2023-07-13T09:44:54;0.77;;;0.65;;
8592;SDS011;4334;49.982;8.398;2023-07-13T09:47:22;1.15;;;0.90;;
8592;SDS011;4334;49.982;8.398;2023-07-13T09:49:57;4.53;;;0.70;;
8592;SDS011;4334;49.982;8.398;2023-07-13T09:52:25;1.42;;;0.95;;
8592;SDS011;4334;49.982;8.398;2023-07-13T09:54:53;1.73;;;0.80;;
8592;SDS011;4334;49.982;8.398;2023-07-13T09:57:24;0.55;;;0.55;;
8592;SDS011;4334;49.982;8.398;2023-07-13T09:59:53;0.75;;;0.57;;
8592;SDS011;4334;49.982;8.398;2023-07-13T10:02:24;0.85;;;0.75;;
8592;SDS011;4334;49.982;8.398;2023-07-13T10:04:57;0.70;;;0.70;;
8592;SDS011;4334;49.982;8.398;2023-07-13T10:07:24;2.58;;;1.15;;
8592;SDS011;4334;49.982;8.398;2023-07-13T10:09:52;0.98;;;0.70;;
8592;SDS011;4334;49.982;8.398;2023-07-13T10:12:19;1.83;;;0.95;;
8592;SDS011;4334;49.982;8.398;2023-07-13T10:14:48;0.65;;;0.65;;
8592;SDS011;4334;49.982;8.398;2023-07-13T10:17:18;1.77;;;0.80;;
8592;SDS011;4334;49.982;8.398;2023-07-13T10:19:52;1.30;;;0.73;;
8592;SDS011;4334;49.982;8.398;2023-07-13T10:22:22;1.33;;;0.90;;
8592;SDS011;4334;49.982;8.398;2023-07-13T10:24:53;1.00;;;0.73;;
8592;SDS011;4334;49.982;8.398;2023-07-13T10:27:23;1.98;;;1.10;;
8592;SDS011;4334;49.982;8.398;2023-07-13T10:30:01;1.45;;;0.90;;
8592;SDS011;4334;49.982;8.398;2023-07-13T10:32:29;0.65;;;0.65;;
8592;SDS011;4334;49.982;8.398;2023-07-13T10:34:56;1.67;;;0.88;;
8592;SDS011;4334;49.982;8.398;2023-07-13T10:37:29;1.15;;;0.90;;
8592;SDS011;4334;49.982;8.398;2023-07-13T10:40:04;3.40;;;0.82;;
8592;SDS011;4334;49.982;8.398;2023-07-13T10:42:38;0.85;;;0.70;;
8592;SDS011;4334;49.982;8.398;2023-07-13T10:45:12;6.40;;;0.90;;
8592;SDS011;4334;49.982;8.398;2023-07-13T10:47:41;1.70;;;1.02;;
8592;SDS011;4334;49.982;8.398;2023-07-13T10:50:12;1.65;;;0.70;;
8592;SDS011;4334;49.982;8.398;2023-07-13T10:52:42;1.30;;;0.90;;
8592;SDS011;4334;49.982;8.398;2023-07-13T10:58:02;1.08;;;0.98;;
8592;SDS011;4334;49.982;8.398;2023-07-13T11:00:31;0.95;;;0.88;;
8592;SDS011;4334;49.982;8.398;2023-07-13T11:02:59;0.75;;;0.73;;
8592;SDS011;4334;49.982;8.398;2023-07-13T11:05:29;0.70;;;0.70;;
8592;SDS011;4334;49.982;8.398;2023-07-13T11:08:04;1.17;;;1.08;;
8592;SDS011;4334;49.982;8.398;2023-07-13T11:10:47;1.85;;;0.65;;
8592;SDS011;4334;49.982;8.398;2023-07-13T11:13:38;0.68;;;0.68;;
8592;SDS011;4334;49.982;8.398;2023-07-13T11:22:15;0.80;;;0.80;;
8592;SDS011;4334;49.982;8.398;2023-07-13T11:24:52;2.55;;;0.90;;
8592;SDS011;4334;49.982;8.398;2023-07-13T11:27:37;1.45;;;1.25;;
8592;SDS011;4334;49.982;8.398;2023-07-13T11:30:21;2.13;;;1.10;;
8592;SDS011;4334;49.982;8.398;2023-07-13T11:32:51;0.70;;;0.70;;
8592;SDS011;4334;49.982;8.398;2023-07-13T11:35:32;0.98;;;0.82;;
8592;SDS011;4334;49.982;8.398;2023-07-13T11:38:01;0.90;;;0.73;;
8592;SDS011;4334;49.982;8.398;2023-07-13T11:40:36;1.08;;;1.00;;
8592;SDS011;4334;49.982;8.398;2023-07-13T11:43:04;0.80;;;0.80;;
8592;SDS011;4334;49.982;8.398;2023-07-13T11:45:33;0.55;;;0.55;;
8592;SDS011;4334;49.982;8.398;2023-07-13T11:48:01;1.08;;;0.88;;
8592;SDS011;4334;49.982;8.398;2023-07-13T11:50:27;1.17;;;0.98;;
8592;SDS011;4334;49.982;8.398;2023-07-13T11:52:57;1.20;;;0.93;;
8592;SDS011;4334;49.982;8.398;2023-07-13T11:55:25;2.28;;;1.00;;
8592;SDS011;4334;49.982;8.398;2023-07-13T11:57:56;0.60;;;0.60;;
8592;SDS011;4334;49.982;8.398;2023-07-13T12:00:26;9.35;;;1.23;;
8592;SDS011;4334;49.982;8.398;2023-07-13T12:02:57;1.50;;;0.70;;
8592;SDS011;4334;49.982;8.398;2023-07-13T12:05:27;1.90;;;0.85;;
8592;SDS011;4334;49.982;8.398;2023-07-13T12:07:56;4.22;;;1.00;;
8592;SDS011;4334;49.982;8.398;2023-07-13T12:10:24;0.75;;;0.75;;
8592;SDS011;4334;49.982;8.398;2023-07-13T12:12:55;0.68;;;0.68;;
8592;SDS011;4334;49.982;8.398;2023-07-13T12:15:28;1.33;;;0.90;;
8592;SDS011;4334;49.982;8.398;2023-07-13T12:18:02;2.42;;;1.00;;
8592;SDS011;4334;49.982;8.398;2023-07-13T12:20:34;1.13;;;0.90;;
8592;SDS011;4334;49.982;8.398;2023-07-13T12:23:04;3.22;;;0.57;;
8592;SDS011;4334;49.982;8.398;2023-07-13T12:25:31;1.27;;;1.05;;
8592;SDS011;4334;49.982;8.398;2023-07-13T12:28:00;0.95;;;0.88;;
8592;SDS011;4334;49.982;8.398;2023-07-13T12:30:47;0.95;;;0.85;;
8592;SDS011;4334;49.982;8.398;2023-07-13T12:33:15;0.98;;;0.80;;
8592;SDS011;4334;49.982;8.398;2023-07-13T12:35:44;1.17;;;1.02;;
8592;SDS011;4334;49.982;8.398;2023-07-13T12:38:12;1.15;;;1.02;;
8592;SDS011;4334;49.982;8.398;2023-07-13T12:40:40;3.78;;;0.95;;
8592;SDS011;4334;49.982;8.398;2023-07-13T12:43:12;0.98;;;0.88;;
8592;SDS011;4334;49.982;8.398;2023-07-13T12:45:40;8.48;;;0.80;;
8592;SDS011;4334;49.982;8.398;2023-07-13T12:48:21;2.00;;;1.00;;
8592;SDS011;4334;49.982;8.398;2023-07-13T12:50:49;0.77;;;0.70;;
8592;SDS011;4334;49.982;8.398;2023-07-13T12:53:17;1.92;;;0.77;;
8592;SDS011;4334;49.982;8.398;2023-07-13T12:55:47;1.55;;;0.90;;
8592;SDS011;4334;49.982;8.398;2023-07-13T12:58:25;0.80;;;0.80;;
8592;SDS011;4334;49.982;8.398;2023-07-13T13:00:53;0.63;;;0.55;;
8592;SDS011;4334;49.982;8.398;2023-07-13T13:03:22;2.40;;;0.93;;
8592;SDS011;4334;49.982;8.398;2023-07-13T13:05:57;3.13;;;0.98;;
8592;SDS011;4334;49.982;8.398;2023-07-13T13:08:27;1.08;;;0.88;;
8592;SDS011;4334;49.982;8.398;2023-07-13T13:10:55;3.60;;;0.85;;
8592;SDS011;4334;49.982;8.398;2023-07-13T13:13:23;1.08;;;0.80;;
8592;SDS011;4334;49.982;8.398;2023-07-13T13:15:50;1.00;;;0.90;;
8592;SDS011;4334;49.982;8.398;2023-07-13T13:18:18;0.98;;;0.82;;
8592;SDS011;4334;49.982;8.398;2023-07-13T13:20:47;4.65;;;1.52;;
8592;SDS011;4334;49.982;8.398;2023-07-13T13:23:14;0.95;;;0.75;;
8592;SDS011;4334;49.982;8.398;2023-07-13T13:25:43;1.15;;;1.08;;
8592;SDS011;4334;49.982;8.398;2023-07-13T13:28:14;1.23;;;0.82;;
8592;SDS011;4334;49.982;8.398;2023-07-13T13:30:44;1.42;;;0.98;;
8592;SDS011;4334;49.982;8.398;2023-07-13T13:33:12;1.95;;;1.10;;
8592;SDS011;4334;49.982;8.398;2023-07-13T13:35:40;0.82;;;0.82;;
8592;SDS011;4334;49.982;8.398;2023-07-13T13:38:09;2.95;;;1.20;;
8592;SDS011;4334;49.982;8.398;2023-07-13T13:40:39;0.82;;;0.68;;
8592;SDS011;4334;49.982;8.398;2023-07-13T13:43:16;1.05;;;0.82;;
8592;SDS011;4334;49.982;8.398;2023-07-13T13:45:45;1.10;;;0.95;;
8592;SDS011;4334;49.982;8.398;2023-07-13T13:48:14;1.08;;;0.77;;
8592;SDS011;4334;49.982;8.398;2023-07-13T13:50:42;1.30;;;0.95;;
8592;SDS011;4334;49.982;8.398;2023-07-13T13:53:10;0.63;;;0.55;;
8592;SDS011;4334;49.982;8.398;2023-07-13T13:55:38;0.88;;;0.85;;
8592;SDS011;4334;49.982;8.398;2023-07-13T13:58:07;0.93;;;0.70;;
8592;SDS011;4334;49.982;8.398;2023-07-13T14:00:35;1.05;;;0.90;;
8592;SDS011;4334;49.982;8.398;2023-07-13T14:03:03;0.68;;;0.68;;
8592;SDS011;4334;49.982;8.398;2023-07-13T14:05:32;1.17;;;0.90;;
8592;SDS011;4334;49.982;8.398;2023-07-13T14:07:59;1.02;;;0.80;;
8592;SDS011;4334;49.982;8.398;2023-07-13T14:10:26;1.45;;;0.70;;
8592;SDS011;4334;49.982;8.398;2023-07-13T14:12:54;6.43;;;0.82;;
8592;SDS011;4334;49.982;8.398;2023-07-13T14:15:23;1.17;;;0.80;;
8592;SDS011;4334;49.982;8.398;2023-07-13T14:17:52;0.80;;;0.80;;
8592;SDS011;4334;49.982;8.398;2023-07-13T14:20:21;0.80;;;0.60;;
8592;SDS011;4334;49.982;8.398;2023-07-13T14:22:49;1.95;;;0.80;;
8592;SDS011;4334;49.982;8.398;2023-07-13T14:25:18;1.55;;;1.23;;
8592;SDS011;4334;49.982;8.398;2023-07-13T14:27:47;0.90;;;0.90;;
8592;SDS011;4334;49.982;8.398;2023-07-13T14:30:19;1.58;;;0.90;;
8592;SDS011;4334;49.982;8.398;2023-07-13T14:32:47;5.47;;;1.00;;
8592;SDS011;4334;49.982;8.398;2023-07-13T14:35:15;2.08;;;0.90;;
8592;SDS011;4334;49.982;8.398;2023-07-13T14:37:44;0.73;;;0.70;;
8592;SDS011;4334;49.982;8.398;2023-07-13T14:40:12;1.17;;;1.02;;
8592;SDS011;4334;49.982;8.398;2023-07-13T14:42:40;1.58;;;0.90;;
8592;SDS011;4334;49.982;8.398;2023-07-13T14:45:12;1.10;;;1.00;;
8592;SDS011;4334;49.982;8.398;2023-07-13T14:47:40;1.38;;;0.98;;
8592;SDS011;4334;49.982;8.398;2023-07-13T14:50:11;1.05;;;1.00;;
8592;SDS011;4334;49.982;8.398;2023-07-13T14:52:41;0.95;;;0.93;;
8592;SDS011;4334;49.982;8.398;2023-07-13T14:55:11;1.08;;;0.98;;
8592;SDS011;4334;49.982;8.398;2023-07-13T14:57:39;1.02;;;0.80;;
8592;SDS011;4334;49.982;8.398;2023-07-13T15:00:12;2.60;;;0.63;;
8592;SDS011;4334;49.982;8.398;2023-07-13T15:02:40;1.75;;;1.00;;
8592;SDS011;4334;49.982;8.398;2023-07-13T15:05:12;1.67;;;1.08;;
8592;SDS011;4334;49.982;8.398;2023-07-13T15:07:42;2.75;;;0.95;;
8592;SDS011;4334;49.982;8.398;2023-07-13T15:10:14;1.10;;;0.85;;
8592;SDS011;4334;49.982;8.398;2023-07-13T15:12:45;6.05;;;0.90;;
8592;SDS011;4334;49.982;8.398;2023-07-13T15:15:13;1.40;;;1.13;;
8592;SDS011;4334;49.982;8.398;2023-07-13T15:17:40;2.47;;;1.10;;
8592;SDS011;4334;49.982;8.398;2023-07-13T15:20:15;0.80;;;0.80;;
8592;SDS011;4334;49.982;8.398;2023-07-13T15:22:54;0.93;;;0.90;;
8592;SDS011;4334;49.982;8.398;2023-07-13T15:25:23;2.17;;;1.00;;
8592;SDS011;4334;49.982;8.398;2023-07-13T15:27:52;0.85;;;0.82;;
8592;SDS011;4334;49.982;8.398;2023-07-13T15:30:19;0.75;;;0.50;;
8592;SDS011;4334;49.982;8.398;2023-07-13T15:32:47;1.02;;;0.90;;
8592;SDS011;4334;49.982;8.398;2023-07-13T15:35:16;4.10;;;1.08;;